createdAt,value
2018-09-07T00:01:10.498Z,15.46
2018-09-07T00:03:39.056Z,15.45
2018-09-07T00:06:07.587Z,15.49
2018-09-07T00:08:36.127Z,15.57
2018-09-07T00:11:04.697Z,15.57
2018-09-07T00:13:33.232Z,15.55
2018-09-07T00:16:01.836Z,15.42
2018-09-07T00:18:30.350Z,15.40
2018-09-07T00:20:58.875Z,15.42
2018-09-07T00:23:27.462Z,15.43
2018-09-07T00:25:55.991Z,15.52
2018-09-07T00:28:24.532Z,15.49
2018-09-07T00:30:53.100Z,15.44
2018-09-07T00:33:21.631Z,15.31
2018-09-07T00:35:50.169Z,15.31
2018-09-07T00:38:20.673Z,15.29
2018-09-07T00:40:49.202Z,15.29
2018-09-07T00:43:17.751Z,15.32
2018-09-07T00:45:53.326Z,15.24
2018-09-07T00:48:21.875Z,15.14
2018-09-07T00:50:50.455Z,15.13
2018-09-07T00:53:19.989Z,15.09
2018-09-07T00:55:48.518Z,15.06
2018-09-07T00:58:19.019Z,15.04
2018-09-07T01:00:47.683Z,15.04
2018-09-07T01:03:16.220Z,15.05
2018-09-07T01:05:44.762Z,15.08
2018-09-07T01:08:13.276Z,15.14
2018-09-07T01:10:41.815Z,15.14
2018-09-07T01:13:10.345Z,15.16
2018-09-07T01:15:38.884Z,15.21
2018-09-07T01:18:13.020Z,15.26
2018-09-07T01:20:41.551Z,15.31
2018-09-07T01:23:10.086Z,15.40
2018-09-07T01:25:38.620Z,15.51
2018-09-07T01:28:07.143Z,15.60
2018-09-07T01:30:35.674Z,15.68
2018-09-07T01:33:04.212Z,15.70
2018-09-07T01:35:32.761Z,15.71
2018-09-07T01:38:01.271Z,15.73
2018-09-07T01:40:30.817Z,15.78
2018-09-07T01:42:59.372Z,15.77
2018-09-07T01:45:27.921Z,15.80
2018-09-07T01:47:56.462Z,15.79
2018-09-07T01:50:25.008Z,15.78
2018-09-07T01:52:54.616Z,15.78
2018-09-07T01:55:23.179Z,15.77
2018-09-07T01:57:54.739Z,15.75
2018-09-07T02:00:28.863Z,15.77
2018-09-07T02:02:57.442Z,15.77
2018-09-07T02:05:26.851Z,15.76
2018-09-07T02:07:58.812Z,15.74
2018-09-07T02:14:09.166Z,15.74
2018-09-07T02:16:38.224Z,15.70
2018-09-07T02:19:07.282Z,15.72
2018-09-07T02:21:36.409Z,15.72
2018-09-07T02:24:05.433Z,15.73
2018-09-07T02:26:34.494Z,15.72
2018-09-07T02:31:39.333Z,15.72
2018-09-07T02:34:08.429Z,15.76
2018-09-07T02:36:38.445Z,15.73
2018-09-07T02:39:09.490Z,15.71
2018-09-07T02:41:39.511Z,15.75
2018-09-07T02:44:16.170Z,15.86
2018-09-07T02:46:47.224Z,15.77
2018-09-07T02:49:19.691Z,15.77
2018-09-07T02:51:50.737Z,15.79
2018-09-07T02:54:22.901Z,15.82
2018-09-07T03:02:03.436Z,15.91
2018-09-07T03:04:32.522Z,15.83
2018-09-07T03:07:03.555Z,15.77
2018-09-07T03:12:08.324Z,15.75
2018-09-07T03:25:00.490Z,15.75
2018-09-07T03:30:05.286Z,15.72
2018-09-07T03:35:10.157Z,15.75
2018-09-07T03:42:50.829Z,15.77
2018-09-07T03:45:19.903Z,15.75
2018-09-07T03:47:49.101Z,15.75
2018-09-07T03:52:53.881Z,15.72
2018-09-07T03:55:23.964Z,15.70
2018-09-07T03:57:53.011Z,15.66
2018-09-07T04:00:22.073Z,15.64
2018-09-07T04:02:51.142Z,15.56
2018-09-07T04:05:20.225Z,15.55
2018-09-07T04:07:49.315Z,15.59
2018-09-07T04:12:54.678Z,15.59
2018-09-07T04:15:23.747Z,15.61
2018-09-07T04:17:52.801Z,15.61
2018-09-07T04:20:21.868Z,15.71
2018-09-07T04:25:26.714Z,15.74
2018-09-07T04:27:55.773Z,15.76
2018-09-07T04:30:24.879Z,15.77
2018-09-07T04:32:53.994Z,15.79
2018-09-07T04:35:26.460Z,15.84
2018-09-07T04:37:56.480Z,15.87
2018-09-07T04:40:25.545Z,15.93
2018-09-07T04:42:54.604Z,15.88
2018-09-07T04:48:00.473Z,15.96
2018-09-07T04:50:31.496Z,16.01
2018-09-07T04:55:36.281Z,16.08
2018-09-07T05:03:16.964Z,16.37
2018-09-07T05:05:46.038Z,16.37
2018-09-07T05:08:15.105Z,16.45
2018-09-07T05:10:44.198Z,16.28
2018-09-07T05:13:13.260Z,16.22
2018-09-07T05:15:42.367Z,16.21
2018-09-07T05:18:11.431Z,16.16
2018-09-07T05:20:40.497Z,16.14
2018-09-07T05:23:09.557Z,16.14
2018-09-07T05:25:41.544Z,16.23
2018-09-07T05:30:47.404Z,16.26
2018-09-07T05:33:16.472Z,16.27
2018-09-07T05:35:45.537Z,16.28
2018-09-07T05:38:14.614Z,16.27
2018-09-07T05:40:43.686Z,16.26
2018-09-07T05:43:14.655Z,16.19
2018-09-07T05:45:43.722Z,16.18
2018-09-07T05:48:12.785Z,16.13
2018-09-07T05:50:41.853Z,16.12
2018-09-07T05:53:11.994Z,16.29
2018-09-07T05:58:17.368Z,16.43
2018-09-07T06:00:46.440Z,16.44
2018-09-07T06:03:16.433Z,16.51
2018-09-07T06:05:45.489Z,16.49
2018-09-07T06:08:14.565Z,16.38
2018-09-07T06:10:43.637Z,16.32
2018-09-07T06:13:12.701Z,16.38
2018-09-07T06:15:41.831Z,16.41
2018-09-07T06:18:10.902Z,16.42
2018-09-07T06:20:40.962Z,16.41
2018-09-07T06:23:10.033Z,16.40
2018-09-07T06:28:14.816Z,16.60
2018-09-07T06:30:43.888Z,16.75
2018-09-07T06:33:13.085Z,16.83
2018-09-07T06:35:44.040Z,16.83
2018-09-07T06:38:13.187Z,16.84
2018-09-07T06:40:53.002Z,16.79
2018-09-07T06:43:36.196Z,16.73
2018-09-07T06:48:45.096Z,16.63
2018-09-07T06:51:14.146Z,16.76
2018-09-07T06:53:45.286Z,16.82
2018-09-07T06:58:50.072Z,16.90
2018-09-07T07:03:54.922Z,16.87
2018-09-07T07:06:24.947Z,16.99
2018-09-07T07:11:29.804Z,17.53
2018-09-07T07:13:58.874Z,17.75
2018-09-07T07:16:27.943Z,17.84
2018-09-07T07:18:57.013Z,17.46
2018-09-07T07:21:26.081Z,17.31
2018-09-07T07:26:30.941Z,17.37
2018-09-07T07:29:04.559Z,17.51
2018-09-07T07:31:33.583Z,17.56
2018-09-07T07:34:02.634Z,17.83
2018-09-07T07:36:32.759Z,18.07
2018-09-07T07:41:38.640Z,18.20
2018-09-07T07:46:43.490Z,18.16
2018-09-07T07:51:48.334Z,18.37
2018-09-07T07:56:54.216Z,19.05
2018-09-07T07:59:23.260Z,19.14
2018-09-07T08:01:52.322Z,19.69
2018-09-07T08:07:01.135Z,19.31
2018-09-07T08:09:30.185Z,19.09
2018-09-07T08:11:59.400Z,18.58
2018-09-07T08:14:28.462Z,18.24
2018-09-07T08:16:57.518Z,17.93
2018-09-07T08:22:02.529Z,17.91
2018-09-07T08:24:31.581Z,18.04
2018-09-07T08:27:00.651Z,18.47
2018-09-07T08:29:29.692Z,18.86
2018-09-07T08:31:59.705Z,19.06
2018-09-07T08:34:29.721Z,19.02
2018-09-07T08:36:58.780Z,19.17
2018-09-07T08:39:27.842Z,18.95
2018-09-07T08:41:58.868Z,18.88
2018-09-07T08:44:27.929Z,18.49
2018-09-07T08:46:57.983Z,18.30
2018-09-07T08:49:27.233Z,18.15
2018-09-07T08:51:56.282Z,18.06
2018-09-07T08:54:25.371Z,18.08
2018-09-07T08:56:55.401Z,18.58
2018-09-07T08:59:24.465Z,19.01
2018-09-07T09:01:53.514Z,19.90
2018-09-07T09:04:22.572Z,20.93
2018-09-07T09:09:31.346Z,20.56
2018-09-07T09:12:00.401Z,20.21
2018-09-07T09:14:29.456Z,19.83
2018-09-07T09:16:58.535Z,19.74
2018-09-07T09:19:27.734Z,19.41
2018-09-07T09:21:56.770Z,19.45
2018-09-07T09:24:25.931Z,19.79
2018-09-07T09:26:54.920Z,19.78
2018-09-07T09:31:59.705Z,19.66
2018-09-07T09:37:04.552Z,20.93
2018-09-07T09:39:33.653Z,20.65
2018-09-07T09:42:04.714Z,20.42
2018-09-07T09:44:33.794Z,20.25
2018-09-07T09:47:04.754Z,19.86
2018-09-07T09:49:33.835Z,19.87
2018-09-07T09:52:03.884Z,19.49
2018-09-07T09:54:33.054Z,19.28
2018-09-07T09:57:02.162Z,19.40
2018-09-07T09:59:31.185Z,19.94
2018-09-07T10:04:54.958Z,20.92
2018-09-07T10:07:24.945Z,20.89
2018-09-07T10:09:54.903Z,20.92
2018-09-07T10:12:23.949Z,22.68
2018-09-07T10:17:28.746Z,25.35
2018-09-07T10:19:57.849Z,26.51
2018-09-07T10:22:26.909Z,26.49
2018-09-07T10:24:56.047Z,26.16
2018-09-07T10:27:25.110Z,28.40
2018-09-07T10:29:57.674Z,30.22
2018-09-07T10:35:02.851Z,27.82
2018-09-07T10:37:31.931Z,28.76
2018-09-07T10:40:01.873Z,27.13
2018-09-07T10:42:30.959Z,24.97
2018-09-07T10:47:35.848Z,23.13
2018-09-07T10:50:05.832Z,23.59
2018-09-07T10:57:46.459Z,27.36
2018-09-07T11:00:15.501Z,29.50
2018-09-07T11:02:44.548Z,31.70
2018-09-07T11:05:13.629Z,30.18
2018-09-07T11:07:42.670Z,29.14
2018-09-07T11:10:11.723Z,27.59
2018-09-07T11:12:40.780Z,25.19
2018-09-07T11:17:45.628Z,26.67
2018-09-07T11:20:14.675Z,25.55
2018-09-07T11:25:20.689Z,26.05
2018-09-07T11:27:50.668Z,26.04
2018-09-07T11:32:55.557Z,27.34
2018-09-07T11:35:25.534Z,27.64
2018-09-07T11:40:30.336Z,26.80
2018-09-07T11:42:59.556Z,27.55
2018-09-07T11:45:28.619Z,27.43
2018-09-07T11:47:57.657Z,28.30
2018-09-07T11:53:02.527Z,29.73
2018-09-07T11:55:32.474Z,29.31
2018-09-07T11:58:01.604Z,29.23
2018-09-07T12:03:06.399Z,28.12
2018-09-07T12:05:35.437Z,26.60
2018-09-07T12:08:05.457Z,25.11
2018-09-07T12:10:34.518Z,24.50
2018-09-07T12:13:03.635Z,24.76
2018-09-07T12:15:33.579Z,25.06
2018-09-07T12:20:38.449Z,24.11
2018-09-07T12:23:07.559Z,23.94
2018-09-07T12:25:39.591Z,23.95
2018-09-07T12:28:08.689Z,23.93
2018-09-07T12:30:37.683Z,23.37
2018-09-07T12:35:42.559Z,23.00
2018-09-07T12:38:11.681Z,21.94
2018-09-07T12:40:40.816Z,21.17
2018-09-07T12:43:10.905Z,20.89
2018-09-07T12:45:39.969Z,20.73
2018-09-07T12:48:11.001Z,20.77
2018-09-07T12:50:42.046Z,20.65
2018-09-07T12:53:14.207Z,20.72
2018-09-07T12:55:47.000Z,21.34
2018-09-07T12:58:17.016Z,21.83
2018-09-07T13:00:46.066Z,22.27
2018-09-07T13:03:15.125Z,22.15
2018-09-07T13:05:46.165Z,22.08
2018-09-07T13:08:15.285Z,22.18
2018-09-07T13:10:44.288Z,22.19
2018-09-07T13:13:13.338Z,21.21
2018-09-07T13:15:43.378Z,20.48
2018-09-07T13:18:14.422Z,20.17
2018-09-07T13:20:43.469Z,19.81
2018-09-07T13:23:12.564Z,19.60
2018-09-07T13:25:41.668Z,19.68
2018-09-07T13:28:12.629Z,19.80
2018-09-07T13:30:41.682Z,19.89
2018-09-07T13:33:12.694Z,20.29
2018-09-07T13:35:41.850Z,20.59
2018-09-07T13:38:10.810Z,20.90
2018-09-07T13:40:39.849Z,21.17
2018-09-07T13:43:08.973Z,21.26
2018-09-07T13:48:13.779Z,21.05
2018-09-07T13:50:46.141Z,21.15
2018-09-07T13:53:18.870Z,21.50
2018-09-07T13:55:52.156Z,22.20
2018-09-07T13:58:21.197Z,22.67
2018-09-07T14:00:50.245Z,22.18
2018-09-07T14:03:22.669Z,22.67
2018-09-07T14:05:51.740Z,22.88
2018-09-07T14:16:09.321Z,24.13
2018-09-07T14:18:39.293Z,24.16
2018-09-07T14:21:08.316Z,24.21
2018-09-07T14:23:39.268Z,24.46
2018-09-07T14:26:09.228Z,26.99
2018-09-07T14:28:38.273Z,29.77
2018-09-07T14:31:07.325Z,31.70
2018-09-07T14:36:12.294Z,32.26
2018-09-07T14:38:41.292Z,29.30
2018-09-07T14:41:10.349Z,31.01
2018-09-07T14:43:39.408Z,32.25
2018-09-07T14:46:08.489Z,33.54
2018-09-07T14:48:37.589Z,33.59
2018-09-07T14:51:06.596Z,31.98
2018-09-07T14:53:35.653Z,28.04
2018-09-07T14:56:04.702Z,25.40
2018-09-07T14:58:33.772Z,27.15
2018-09-07T15:01:02.878Z,26.69
2018-09-07T15:03:32.904Z,25.65
2018-09-07T15:06:01.947Z,24.84
2018-09-07T15:08:31.980Z,24.31
2018-09-07T15:11:01.009Z,24.01
2018-09-07T15:16:05.892Z,22.86
2018-09-07T15:18:35.921Z,23.21
2018-09-07T15:21:05.901Z,24.89
2018-09-07T15:23:34.965Z,27.66
2018-09-07T15:26:05.050Z,28.02
2018-09-07T15:28:34.072Z,29.05
2018-09-07T15:31:03.344Z,27.85
2018-09-07T15:33:34.368Z,26.44
2018-09-07T15:38:39.277Z,24.89
2018-09-07T15:41:11.621Z,23.80
2018-09-07T15:43:40.667Z,23.33
2018-09-07T15:48:50.502Z,22.32
2018-09-07T15:53:56.244Z,22.43
2018-09-07T16:01:37.869Z,21.64
2018-09-07T16:04:06.920Z,21.82
2018-09-07T16:06:35.981Z,21.45
2018-09-07T16:09:06.993Z,21.34
2018-09-07T16:11:36.055Z,20.91
2018-09-07T16:14:07.020Z,20.68
2018-09-07T16:16:37.125Z,20.53
2018-09-07T16:19:06.174Z,20.40
2018-09-07T16:24:11.052Z,20.14
2018-09-07T16:26:40.134Z,20.20
2018-09-07T16:31:44.984Z,20.25
2018-09-07T16:36:51.774Z,20.36
2018-09-07T16:40:36.405Z,20.36
2018-09-07T16:43:06.416Z,20.22
2018-09-07T16:48:12.277Z,19.95
2018-09-07T16:50:41.326Z,19.73
2018-09-07T16:53:11.401Z,19.52
2018-09-07T16:55:40.482Z,19.57
2018-09-07T16:58:09.522Z,19.50
2018-09-07T17:05:49.643Z,18.00
2018-09-07T17:08:20.624Z,17.67
2018-09-07T17:10:51.685Z,17.66
2018-09-07T17:13:20.760Z,17.49
2018-09-07T17:23:37.272Z,17.29
2018-09-07T17:26:06.347Z,17.29
2018-09-07T17:28:35.412Z,17.07
2018-09-07T17:31:04.485Z,16.89
2018-09-07T17:36:16.376Z,17.03
2018-09-07T17:38:45.452Z,17.09
2018-09-07T17:41:14.533Z,16.89
2018-09-07T17:43:53.588Z,16.70
2018-09-07T17:49:00.372Z,16.65
2018-09-07T17:51:29.438Z,16.73
2018-09-07T17:53:58.660Z,16.82
2018-09-07T17:59:04.451Z,16.46
2018-09-07T18:01:33.522Z,16.53
2018-09-07T18:04:03.748Z,16.62
2018-09-07T18:06:32.781Z,16.88
2018-09-07T18:11:37.641Z,16.70
2018-09-07T18:14:06.713Z,16.65
2018-09-07T18:16:35.773Z,16.36
2018-09-07T18:19:04.838Z,16.21
2018-09-07T18:21:36.009Z,16.21
2018-09-07T18:24:05.106Z,16.21
2018-09-07T18:26:34.157Z,16.12
2018-09-07T18:29:03.226Z,16.08
2018-09-07T18:31:32.291Z,16.09
2018-09-07T18:34:05.075Z,16.06
2018-09-07T18:36:36.083Z,16.09
2018-09-07T18:39:05.179Z,16.23
2018-09-07T18:41:34.197Z,16.17
2018-09-07T18:44:03.310Z,16.24
2018-09-07T18:46:32.332Z,16.25
2018-09-07T18:49:01.397Z,16.24
2018-09-07T18:51:30.500Z,16.29
2018-09-07T18:53:59.543Z,16.37
2018-09-07T18:56:28.650Z,16.38
2018-09-07T19:01:33.469Z,16.08
2018-09-07T19:06:38.401Z,15.89
2018-09-07T19:09:07.489Z,15.88
2018-09-07T19:11:36.562Z,15.93
2018-09-07T19:14:05.625Z,16.02
2018-09-07T19:16:34.685Z,16.02
2018-09-07T19:19:07.332Z,16.00
2018-09-07T19:21:36.469Z,15.94
2018-09-07T19:24:05.536Z,15.84
2018-09-07T19:26:34.625Z,15.75
2018-09-07T19:29:03.722Z,15.68
2018-09-07T19:36:44.388Z,15.72
2018-09-07T19:39:14.395Z,15.86
2018-09-07T19:41:43.448Z,15.83
2018-09-07T19:44:12.574Z,15.78
2018-09-07T19:46:41.589Z,15.80
2018-09-07T19:49:11.655Z,15.85
2018-09-07T19:51:40.670Z,15.88
2018-09-07T19:54:11.802Z,15.83
2018-09-07T19:56:42.785Z,15.86
2018-09-07T19:59:12.809Z,15.91
2018-09-07T20:01:41.871Z,15.91
2018-09-07T20:04:10.943Z,15.93
2018-09-07T20:06:40.068Z,16.02
2018-09-07T20:09:13.209Z,15.99
2018-09-07T20:11:44.189Z,15.98
2018-09-07T20:14:13.329Z,15.94
2018-09-07T20:19:18.122Z,15.98
2018-09-07T20:24:22.900Z,15.72
2018-09-07T20:26:51.965Z,15.63
2018-09-07T20:29:21.046Z,15.48
2018-09-07T20:31:50.113Z,15.48
2018-09-07T20:34:28.556Z,15.47
2018-09-07T20:37:00.857Z,15.35
2018-09-07T20:42:05.879Z,15.36
2018-09-07T20:44:34.961Z,15.41
2018-09-07T20:47:04.014Z,15.34
2018-09-07T20:49:32.639Z,15.29
2018-09-07T20:52:01.652Z,15.16
2018-09-07T20:54:30.191Z,15.17
2018-09-07T20:56:58.723Z,15.21
2018-09-07T20:59:27.264Z,15.21
2018-09-07T21:01:55.919Z,15.28
2018-09-07T21:04:24.439Z,15.23
2018-09-07T21:06:52.982Z,15.22
2018-09-07T21:09:21.612Z,15.18
2018-09-07T21:11:50.159Z,15.19
2018-09-07T21:14:18.685Z,15.22
2018-09-07T21:16:47.223Z,15.11
2018-09-07T21:19:15.759Z,15.00
2018-09-07T21:21:44.321Z,15.01
2018-09-07T21:24:12.864Z,14.97
2018-09-07T21:26:41.397Z,14.90
2018-09-07T21:29:10.032Z,14.90
2018-09-07T21:31:38.566Z,14.89
2018-09-07T21:34:10.947Z,14.95
2018-09-07T21:36:39.489Z,14.96
2018-09-07T21:39:08.043Z,14.91
2018-09-07T21:41:38.555Z,14.86
2018-09-07T21:44:07.090Z,14.84
2018-09-07T21:46:35.611Z,14.84
2018-09-07T21:49:04.135Z,14.85
2018-09-07T21:51:32.697Z,14.87
2018-09-07T21:54:01.230Z,14.84
2018-09-07T21:56:29.776Z,14.82
2018-09-07T21:58:58.316Z,14.74
2018-09-07T22:01:31.035Z,14.82
2018-09-07T22:03:59.577Z,14.85
2018-09-07T22:06:28.108Z,14.93
2018-09-07T22:08:56.642Z,14.89
2018-09-07T22:11:25.196Z,14.96
2018-09-07T22:13:53.745Z,14.98
2018-09-07T22:16:23.287Z,14.99
2018-09-07T22:18:51.807Z,15.05
2018-09-07T22:21:22.303Z,15.00
2018-09-07T22:23:50.846Z,15.01
2018-09-07T22:26:19.456Z,14.98
2018-09-07T22:28:51.973Z,14.99
2018-09-07T22:31:20.505Z,14.99
2018-09-07T22:33:49.038Z,14.92
2018-09-07T22:36:17.571Z,14.87
2018-09-07T22:38:46.121Z,14.83
2018-09-07T22:41:14.649Z,14.83
2018-09-07T22:43:43.186Z,14.89
2018-09-07T22:46:11.713Z,14.76
2018-09-07T22:48:40.261Z,14.68
2018-09-07T22:51:08.815Z,14.64
2018-09-07T22:53:37.356Z,14.57
2018-09-07T22:56:05.893Z,14.51
2018-09-07T22:58:41.465Z,14.44
2018-09-07T23:01:10.004Z,14.39
2018-09-07T23:03:38.540Z,14.37
2018-09-07T23:06:10.192Z,14.38
2018-09-07T23:08:40.833Z,14.40
2018-09-07T23:11:09.447Z,14.32
2018-09-07T23:13:37.983Z,14.38
2018-09-07T23:16:06.531Z,14.43
2018-09-07T23:18:35.255Z,14.48
2018-09-07T23:21:03.788Z,14.48
2018-09-07T23:23:32.314Z,14.52
2018-09-07T23:26:00.844Z,14.52
2018-09-07T23:28:29.431Z,14.51
2018-09-07T23:30:58.939Z,14.54
2018-09-07T23:33:27.472Z,14.60
2018-09-07T23:35:56.014Z,14.61
2018-09-07T23:38:25.075Z,14.61
2018-09-07T23:40:53.604Z,14.54
2018-09-07T23:43:22.144Z,14.56
2018-09-07T23:45:50.680Z,14.52
2018-09-07T23:48:19.225Z,14.47
2018-09-07T23:50:47.760Z,14.39
2018-09-07T23:53:16.300Z,14.37
2018-09-07T23:55:46.777Z,14.38
2018-09-07T23:58:15.307Z,14.41
